Time;durP1;ratioP1;P1;durP2;ratioP2;P2;SDS_P1;SDS_P2;PMS_P1;PMS_P2;Temp;Humidity;BMP_temperature;BMP_pressure;BME280_temperature;BME280_humidity;BME280_pressure;Samples;Min_cycle;Max_cycle;Signal;HPM_P1;HPM_P2
2023/09/27 00:01:55;;;;;;;27.65;9.80;;;;;;;14.77;88.99;100834.34;5053751;28;20045;-72
2023/09/27 00:04:20;;;;;;;19.17;9.60;;;;;;;14.78;89.38;100838.69;5036508;28;20329;-72
2023/09/27 00:06:47;;;;;;;19.95;9.85;;;;;;;14.83;89.01;100839.06;5053043;28;20036;-72
2023/09/27 00:09:12;;;;;;;24.25;10.10;;;;;;;14.87;88.43;100845.78;5036591;28;20094;-70
2023/09/27 00:11:38;;;;;;;22.40;9.57;;;;;;;14.90;88.20;100852.63;5020480;28;20044;-70
2023/09/27 00:14:04;;;;;;;24.90;9.60;;;;;;;14.91;88.27;100840.97;5037082;28;20052;-72
2023/09/27 00:16:30;;;;;;;25.40;9.75;;;;;;;14.92;88.19;100840.81;5053185;28;20037;-71
2023/09/27 00:18:56;;;;;;;16.20;9.38;;;;;;;14.93;88.74;100833.59;5052885;28;20048;-72
2023/09/27 00:21:21;;;;;;;15.98;9.10;;;;;;;14.95;88.18;100829.78;5020005;28;20045;-75
2023/09/27 00:23:47;;;;;;;24.52;9.10;;;;;;;15.01;88.07;100833.66;5069461;28;20064;-76
2023/09/27 00:26:13;;;;;;;17.38;8.60;;;;;;;15.01;87.52;100833.66;5052885;28;20049;-76
2023/09/27 00:28:41;;;;;;;17.73;9.35;;;;;;;15.04;87.58;100828.84;5036644;28;20059;-75
2023/09/27 00:31:07;;;;;;;26.33;9.88;;;;;;;15.03;87.30;100831.69;5053520;28;20545;-76
2023/09/27 00:33:33;;;;;;;18.77;8.98;;;;;;;15.03;87.22;100834.34;5036842;28;20098;-76
2023/09/27 00:35:59;;;;;;;19.70;9.63;;;;;;;15.04;86.86;100836.00;5036791;28;20044;-76
2023/09/27 00:38:25;;;;;;;24.23;9.98;;;;;;;15.03;87.00;100832.53;5036501;28;20107;-76
2023/09/27 00:40:51;;;;;;;20.92;9.85;;;;;;;15.08;86.78;100832.88;5036962;28;20080;-76
2023/09/27 00:43:30;;;;;;;22.50;9.77;;;;;;;15.21;86.90;100824.41;5020756;28;20041;-75
2023/09/27 00:46:06;;;;;;;25.08;9.73;;;;;;;15.21;86.85;100825.25;5053417;28;20099;-77
2023/09/27 00:48:34;;;;;;;22.42;9.55;;;;;;;15.17;86.50;100831.09;5053021;28;20130;-77
2023/09/27 00:51:00;;;;;;;20.67;9.55;;;;;;;15.12;86.14;100836.06;5036842;28;20045;-76
2023/09/27 00:53:28;;;;;;;23.42;9.32;;;;;;;15.15;86.11;100822.38;5053696;28;20080;-75
2023/09/27 00:55:55;;;;;;;18.95;9.20;;;;;;;15.06;85.96;100834.88;5019349;28;20083;-76
2023/09/27 00:58:22;;;;;;;23.20;9.63;;;;;;;15.06;86.25;100842.06;5036015;28;20049;-76
2023/09/27 01:00:52;;;;;;;23.98;10.27;;;;;;;15.08;86.11;100835.53;5035928;28;20411;-76
2023/09/27 01:03:19;;;;;;;23.35;9.95;;;;;;;14.98;86.02;100844.69;5003720;28;20041;-76
2023/09/27 01:05:46;;;;;;;23.40;9.68;;;;;;;15.00;86.18;100840.88;5035565;28;20059;-76
2023/09/27 01:08:12;;;;;;;27.38;11.23;;;;;;;14.96;85.92;100844.84;5002931;28;20178;-75
2023/09/27 01:10:38;;;;;;;26.20;10.80;;;;;;;15.00;85.64;100842.69;5019301;28;20041;-78
2023/09/27 01:13:05;;;;;;;17.50;9.55;;;;;;;15.00;85.92;100837.34;5019276;28;20045;-78
2023/09/27 01:15:32;;;;;;;20.05;10.15;;;;;;;15.06;85.75;100840.25;5019549;28;20495;-78
2023/09/27 01:17:59;;;;;;;20.77;9.90;;;;;;;15.06;85.54;100836.72;5051494;28;20041;-79
2023/09/27 01:20:26;;;;;;;17.83;8.93;;;;;;;15.04;85.47;100836.00;5070100;28;20041;-78
2023/09/27 01:23:02;;;;;;;22.05;10.20;;;;;;;14.96;86.18;100836.00;5020246;28;20451;-79
2023/09/27 01:25:30;;;;;;;18.75;9.20;;;;;;;14.84;86.61;100839.88;5052849;28;20124;-79
2023/09/27 01:28:00;;;;;;;19.23;8.27;;;;;;;14.78;87.50;100843.19;5019082;28;20435;-78
2023/09/27 01:30:32;;;;;;;20.30;9.53;;;;;;;14.77;87.18;100830.81;5035459;28;20053;-78
2023/09/27 01:33:06;;;;;;;21.98;9.48;;;;;;;14.82;87.29;100833.88;5036500;28;20041;-78
2023/09/27 01:35:33;;;;;;;20.20;9.05;;;;;;;14.81;87.28;100830.34;5020960;28;20541;-77
2023/09/27 01:37:59;;;;;;;22.25;9.20;;;;;;;14.72;87.60;100833.97;5069321;28;20106;-78
2023/09/27 01:40:30;;;;;;;21.63;8.90;;;;;;;14.80;86.61;100839.38;5019725;28;20348;-78
2023/09/27 01:43:01;;;;;;;16.45;8.20;;;;;;;14.76;87.75;100839.84;5036886;28;20075;-78
2023/09/27 01:45:32;;;;;;;20.13;9.10;;;;;;;14.74;87.08;100840.00;5019571;28;20068;-75
2023/09/27 01:48:00;;;;;;;12.68;8.05;;;;;;;14.70;87.47;100837.78;5004998;28;20570;-78
2023/09/27 01:50:28;;;;;;;15.43;8.13;;;;;;;14.66;87.83;100834.59;5015213;28;20201;-78
2023/09/27 01:52:56;;;;;;;17.95;8.93;;;;;;;14.52;88.18;100831.63;4982555;28;20049;-76
2023/09/27 01:55:23;;;;;;;13.68;8.07;;;;;;;14.44;88.95;100829.72;4997175;28;20045;-78
2023/09/27 01:57:50;;;;;;;17.85;8.98;;;;;;;14.46;88.28;100835.75;4981366;28;20053;-79
2023/09/27 02:00:22;;;;;;;14.38;7.88;;;;;;;14.43;89.12;100837.88;4982850;28;20171;-78
2023/09/27 02:02:59;;;;;;;14.68;8.10;;;;;;;14.43;88.96;100838.75;4974822;28;20116;-77
2023/09/27 02:05:29;;;;;;;20.05;9.35;;;;;;;14.43;88.62;100838.75;4959693;28;20141;-77
2023/09/27 02:07:56;;;;;;;21.02;10.48;;;;;;;14.46;87.32;100840.25;4942962;28;20105;-78
2023/09/27 02:10:23;;;;;;;23.45;10.27;;;;;;;14.36;87.65;100836.84;4904690;29;20063;-76
2023/09/27 02:12:50;;;;;;;22.90;9.55;;;;;;;14.29;87.97;100833.94;4936546;29;20157;-78
2023/09/27 02:15:19;;;;;;;20.35;10.20;;;;;;;14.28;88.88;100829.59;4920896;29;20070;-77
2023/09/27 02:17:49;;;;;;;25.67;11.05;;;;;;;14.31;88.72;100834.63;4921124;29;20043;-78
2023/09/27 02:20:18;;;;;;;13.40;9.02;;;;;;;14.29;89.07;100825.91;4935972;29;20524;-74
2023/09/27 02:22:49;;;;;;;16.00;7.78;;;;;;;14.32;88.77;100830.09;4936238;29;20520;-73
2023/09/27 02:25:18;;;;;;;14.93;8.13;;;;;;;14.40;88.74;100832.84;4920602;29;20055;-75
2023/09/27 02:27:46;;;;;;;12.07;7.75;;;;;;;14.38;88.73;100833.00;4938089;28;20050;-73
2023/09/27 02:30:15;;;;;;;16.02;8.30;;;;;;;14.33;88.74;100834.47;4959371;28;20145;-74
2023/09/27 02:32:45;;;;;;;13.05;8.18;;;;;;;14.32;88.86;100827.41;4959611;28;20061;-78
2023/09/27 02:35:37;;;;;;;16.42;7.57;;;;;;;14.37;89.08;100827.81;4926531;29;20047;-79
2023/09/27 02:38:09;;;;;;;;;;;;;;;14.46;88.69;100826.88;4922737;29;20142;-79
2023/09/27 02:40:37;;;;;;;16.95;7.30;;;;;;;14.26;88.57;100823.53;4920860;28;20024;-78
2023/09/27 02:43:03;;;;;;;13.02;7.57;;;;;;;14.24;89.05;100833.53;4908439;29;20050;-78
2023/09/27 02:45:29;;;;;;;13.60;8.35;;;;;;;14.19;88.92;100826.94;4972373;28;20405;-78
2023/09/27 02:47:55;;;;;;;18.05;8.15;;;;;;;14.17;89.02;100828.91;4974923;28;20062;-78
2023/09/27 02:50:21;;;;;;;14.23;8.07;;;;;;;14.14;89.08;100831.91;4943230;28;20054;-78
2023/09/27 02:52:47;;;;;;;20.67;8.70;;;;;;;14.14;89.53;100830.06;4958290;28;20508;-76
2023/09/27 02:55:13;;;;;;;15.65;7.72;;;;;;;14.14;89.33;100830.06;4958361;28;20054;-79
2023/09/27 02:57:41;;;;;;;13.70;8.18;;;;;;;14.16;89.27;100821.91;4973857;28;20460;-78
2023/09/27 03:00:08;;;;;;;15.65;7.97;;;;;;;14.19;89.12;100819.75;4957971;28;20358;-78
2023/09/27 03:02:35;;;;;;;17.58;8.98;;;;;;;14.17;88.93;100811.06;4958411;28;20473;-78
2023/09/27 03:05:04;;;;;;;13.50;8.48;;;;;;;14.18;89.18;100826.09;4991620;28;20049;-75
2023/09/27 03:07:33;;;;;;;15.43;8.10;;;;;;;14.21;88.72;100820.44;5013115;28;20513;-75
2023/09/27 03:09:59;;;;;;;15.18;9.90;;;;;;;14.18;88.70;100819.91;4980525;28;20471;-75
2023/09/27 03:12:25;;;;;;;15.73;9.20;;;;;;;14.09;88.81;100824.34;4980632;28;20037;-75
2023/09/27 03:14:51;;;;;;;14.20;9.68;;;;;;;14.04;89.04;100812.44;4996901;28;20156;-75
2023/09/27 03:17:17;;;;;;;15.13;8.60;;;;;;;14.00;89.53;100819.06;4996738;28;20138;-73
2023/09/27 03:19:47;;;;;;;17.05;8.43;;;;;;;14.06;89.95;100821.97;4964601;28;20139;-72
2023/09/27 03:22:13;;;;;;;14.02;8.13;;;;;;;14.00;89.65;100819.91;4981242;28;20049;-75
2023/09/27 03:24:39;;;;;;;15.80;7.97;;;;;;;14.04;89.63;100818.59;4984988;28;20164;-74
2023/09/27 03:27:08;;;;;;;16.70;9.00;;;;;;;14.03;89.37;100821.44;5016990;28;20063;-75
2023/09/27 03:29:35;;;;;;;13.48;8.10;;;;;;;14.02;89.76;100825.09;5034115;28;20053;-76
2023/09/27 03:32:02;;;;;;;13.82;7.70;;;;;;;13.99;90.10;100820.06;5033516;28;20040;-76
2023/09/27 03:34:28;;;;;;;13.63;7.80;;;;;;;14.03;89.62;100821.44;5033790;28;20124;-76
2023/09/27 03:36:57;;;;;;;20.02;8.75;;;;;;;14.07;89.36;100822.81;5033496;28;20045;-76
2023/09/27 03:39:23;;;;;;;20.83;7.55;;;;;;;14.08;89.39;100832.50;5049803;28;20041;-76
2023/09/27 03:41:52;;;;;;;15.75;8.57;;;;;;;14.16;89.65;100829.94;5017155;28;20043;-74
2023/09/27 03:44:18;;;;;;;14.52;7.65;;;;;;;14.04;89.25;100825.78;5033899;28;20051;-75
2023/09/27 03:46:44;;;;;;;20.55;8.05;;;;;;;14.05;89.65;100832.81;5033182;28;20083;-75
2023/09/27 03:49:12;;;;;;;12.60;7.38;;;;;;;14.12;89.34;100821.38;5050052;28;20052;-75
2023/09/27 03:51:39;;;;;;;14.88;7.82;;;;;;;14.09;89.26;100831.50;5016085;28;20037;-75
2023/09/27 03:54:05;;;;;;;17.73;8.05;;;;;;;14.11;88.94;100825.03;5017156;28;20045;-76
2023/09/27 03:56:32;;;;;;;13.20;7.53;;;;;;;14.12;89.21;100828.53;5036606;28;20053;-74
2023/09/27 03:58:58;;;;;;;17.83;7.65;;;;;;;14.16;89.09;100836.09;5069767;28;20118;-75
2023/09/27 04:01:24;;;;;;;13.77;8.05;;;;;;;14.16;89.14;100832.59;5020609;28;20037;-74
2023/09/27 04:03:50;;;;;;;13.40;7.78;;;;;;;14.21;88.63;100833.81;5070113;28;20485;-75
2023/09/27 04:06:17;;;;;;;15.02;8.38;;;;;;;14.26;88.44;100826.22;5037304;28;20152;-76
2023/09/27 04:08:42;;;;;;;12.55;7.80;;;;;;;14.30;88.43;100824.91;5036897;28;20668;-76
2023/09/27 04:11:10;;;;;;;16.88;8.20;;;;;;;14.33;87.80;100821.09;5020637;28;20087;-77
2023/09/27 04:13:36;;;;;;;17.02;7.75;;;;;;;14.36;87.44;100826.97;5053291;28;20040;-76
2023/09/27 04:16:03;;;;;;;11.13;7.68;;;;;;;14.39;87.26;100810.63;5020332;28;20094;-75
2023/09/27 04:18:29;;;;;;;15.20;7.72;;;;;;;14.46;87.01;100824.22;5037444;28;20114;-75
2023/09/27 04:20:55;;;;;;;11.88;8.43;;;;;;;14.50;86.91;100817.59;5036783;28;20083;-74
2023/09/27 04:23:21;;;;;;;17.75;8.98;;;;;;;14.57;86.28;100815.97;5053344;28;20081;-74
2023/09/27 04:25:47;;;;;;;14.27;8.23;;;;;;;14.62;85.60;100824.38;5053299;28;20045;-71
2023/09/27 04:28:14;;;;;;;15.10;8.25;;;;;;;14.57;85.32;100816.81;5036361;28;20347;-73
2023/09/27 04:30:40;;;;;;;13.48;7.43;;;;;;;14.58;85.82;100815.81;5036549;28;20059;-73
2023/09/27 04:33:07;;;;;;;13.57;7.55;;;;;;;14.56;85.03;100815.09;5052850;28;20088;-72
2023/09/27 04:35:33;;;;;;;15.75;8.10;;;;;;;14.58;85.26;100817.63;5036001;28;20041;-73
2023/09/27 04:37:59;;;;;;;18.60;8.80;;;;;;;14.58;85.46;100825.66;5053167;28;20060;-72
2023/09/27 04:40:25;;;;;;;17.13;8.50;;;;;;;14.62;84.86;100821.69;5026202;28;20041;-74
2023/09/27 04:42:51;;;;;;;12.15;7.40;;;;;;;14.62;84.82;100821.69;5010582;28;20099;-73
2023/09/27 04:45:18;;;;;;;14.15;8.38;;;;;;;14.64;84.90;100825.88;4991998;28;20044;-73
2023/09/27 04:47:44;;;;;;;16.70;7.85;;;;;;;14.68;84.66;100823.75;5009389;28;20037;-71
2023/09/27 04:50:10;;;;;;;19.95;8.07;;;;;;;14.69;84.56;100826.25;5005217;28;20076;-72
2023/09/27 04:52:38;;;;;;;16.85;8.02;;;;;;;14.78;84.57;100827.16;5032824;28;20060;-69
2023/09/27 04:55:06;;;;;;;15.40;8.45;;;;;;;14.89;84.41;100826.91;5034064;28;20124;-71
2023/09/27 04:57:32;;;;;;;14.13;7.85;;;;;;;14.85;84.00;100834.38;4982838;28;20049;-70
2023/09/27 04:59:58;;;;;;;19.20;8.80;;;;;;;14.91;83.63;100832.94;4999070;28;20391;-70
2023/09/27 05:02:25;;;;;;;19.90;8.43;;;;;;;15.01;84.59;100841.69;5015003;28;20065;-71
2023/09/27 05:04:51;;;;;;;15.57;8.15;;;;;;;15.13;84.05;100840.41;4999490;28;20049;-71
2023/09/27 05:07:19;;;;;;;16.65;8.20;;;;;;;15.22;83.81;100837.63;4998826;28;20219;-72
2023/09/27 05:09:46;;;;;;;15.70;8.32;;;;;;;15.32;83.01;100831.31;4996426;28;20128;-71
2023/09/27 05:12:14;;;;;;;17.42;8.13;;;;;;;15.40;82.23;100834.09;4999069;28;20051;-72
2023/09/27 05:14:41;;;;;;;17.30;8.95;;;;;;;15.47;82.66;100838.63;5005556;28;20041;-70
2023/09/27 05:17:08;;;;;;;25.17;8.85;;;;;;;15.54;82.25;100845.06;5039223;28;20076;-72
2023/09/27 05:19:35;;;;;;;32.47;9.60;;;;;;;15.62;81.80;100839.72;5008600;28;20154;-71
2023/09/27 05:22:00;;;;;;;16.80;8.50;;;;;;;15.72;81.12;100842.25;5007193;28;20553;-72
2023/09/27 05:24:26;;;;;;;13.63;8.35;;;;;;;15.74;80.65;100841.13;4998820;28;20036;-70
2023/09/27 05:26:52;;;;;;;18.08;7.82;;;;;;;15.87;80.80;100846.00;4992822;28;20040;-72
2023/09/27 05:29:19;;;;;;;17.75;8.80;;;;;;;15.97;79.86;100849.38;5016417;28;20069;-73
2023/09/27 05:31:45;;;;;;;29.13;9.98;;;;;;;15.86;80.10;100853.22;5024880;28;20035;-72
2023/09/27 05:34:11;;;;;;;25.63;9.48;;;;;;;15.92;80.25;100846.34;4993511;28;20041;-71
2023/09/27 05:36:37;;;;;;;29.77;10.02;;;;;;;16.03;79.84;100849.59;5013357;28;20395;-71
2023/09/27 05:39:08;;;;;;;24.73;9.38;;;;;;;16.18;79.32;100857.81;5041528;28;20498;-72
2023/09/27 05:41:37;;;;;;;20.83;8.90;;;;;;;16.40;79.94;100850.00;5043257;28;20041;-71
2023/09/27 05:44:03;;;;;;;22.58;9.68;;;;;;;16.46;78.72;100853.88;5024770;28;20135;-72
2023/09/27 05:46:30;;;;;;;27.63;10.48;;;;;;;16.57;78.29;100848.19;5040180;28;20040;-70
2023/09/27 05:48:56;;;;;;;28.80;9.95;;;;;;;16.69;77.77;100858.41;5042136;28;20090;-71
2023/09/27 05:51:23;;;;;;;19.77;9.18;;;;;;;16.79;77.18;100853.72;5010644;28;20053;-73
2023/09/27 05:53:52;;;;;;;32.28;10.38;;;;;;;16.79;76.90;100855.53;5041729;28;20036;-72
2023/09/27 05:56:18;;;;;;;22.63;9.73;;;;;;;16.85;76.83;100850.34;5009552;28;20064;-72
2023/09/27 05:58:45;;;;;;;25.38;8.98;;;;;;;16.89;76.85;100850.84;5008246;28;20111;-73
2023/09/27 06:01:12;;;;;;;16.63;9.35;;;;;;;17.04;76.41;100853.69;5038608;28;20521;-74
2023/09/27 06:03:41;;;;;;;20.40;9.75;;;;;;;17.04;76.33;100861.72;5022324;28;20135;-75
2023/09/27 06:06:07;;;;;;;14.98;8.82;;;;;;;17.15;76.36;100859.53;5022979;28;20526;-75
2023/09/27 06:08:33;;;;;;;15.38;9.48;;;;;;;17.26;76.04;100859.19;5007658;28;20040;-75
2023/09/27 06:10:59;;;;;;;20.73;9.60;;;;;;;17.28;75.97;100854.50;5022349;28;20072;-75
2023/09/27 06:13:28;;;;;;;17.48;8.85;;;;;;;17.58;76.43;100860.97;5006798;28;20564;-74
2023/09/27 06:15:54;;;;;;;31.85;9.82;;;;;;;17.94;75.04;100865.69;5023931;28;20048;-74
2023/09/27 06:18:21;;;;;;;19.70;8.50;;;;;;;18.43;73.58;100866.28;5015529;28;20045;-76
2023/09/27 06:20:47;;;;;;;26.60;9.20;;;;;;;18.81;71.75;100861.78;5021854;28;20048;-76
2023/09/27 06:23:13;;;;;;;15.32;8.18;;;;;;;19.10;70.10;100859.16;5031190;28;20051;-75
2023/09/27 06:25:43;;;;;;;20.83;8.57;;;;;;;19.32;69.08;100866.38;5007378;28;20048;-75
2023/09/27 06:28:17;;;;;;;17.67;8.32;;;;;;;19.65;67.27;100863.13;5005700;28;20074;-75
2023/09/27 06:30:45;;;;;;;19.92;8.50;;;;;;;20.01;66.58;100860.47;5007428;28;20131;-75
2023/09/27 06:33:12;;;;;;;22.83;9.10;;;;;;;20.14;65.75;100851.75;5008590;28;20060;-75
2023/09/27 06:35:39;;;;;;;17.70;8.35;;;;;;;20.29;65.09;100850.69;5007057;28;20391;-79
2023/09/27 06:38:07;;;;;;;14.98;9.00;;;;;;;20.38;64.61;100854.91;5014878;28;20106;-75
2023/09/27 06:40:35;;;;;;;15.20;8.25;;;;;;;20.51;64.34;100865.84;5014078;28;20440;-75
2023/09/27 06:43:02;;;;;;;15.18;8.55;;;;;;;20.67;64.64;100864.75;5039208;28;20042;-75
2023/09/27 06:45:28;;;;;;;14.73;7.93;;;;;;;20.78;63.48;100856.97;5041289;28;20045;-75
2023/09/27 06:47:56;;;;;;;13.70;7.57;;;;;;;20.94;62.77;100864.78;5025407;28;20041;-77
2023/09/27 06:50:26;;;;;;;16.33;7.20;;;;;;;21.02;62.10;100866.56;5026354;28;20041;-77
2023/09/27 06:52:52;;;;;;;17.80;7.00;;;;;;;21.04;60.88;100867.19;5051081;28;20163;-79
2023/09/27 06:55:22;;;;;;;14.98;6.88;;;;;;;21.21;60.70;100864.00;5037106;28;20055;-78
2023/09/27 06:57:51;;;;;;;14.35;6.47;;;;;;;21.46;59.38;100867.91;5053219;28;20382;-77
2023/09/27 07:00:23;;;;;;;16.43;6.47;;;;;;;21.79;58.06;100854.59;5037747;28;20044;-77
2023/09/27 07:02:51;;;;;;;12.05;6.53;;;;;;;22.06;57.44;100858.25;5037359;28;20139;-78
2023/09/27 07:05:21;;;;;;;15.65;5.88;;;;;;;22.26;56.11;100856.47;5020925;28;20086;-77
2023/09/27 07:07:51;;;;;;;22.20;5.77;;;;;;;22.60;54.31;100864.50;5018238;28;20036;-77
2023/09/27 07:10:17;;;;;;;18.60;5.47;;;;;;;22.86;53.05;100862.63;5017519;28;20287;-77
2023/09/27 07:12:46;;;;;;;16.20;5.03;;;;;;;23.81;50.21;100859.38;5019328;28;20044;-79
2023/09/27 07:15:13;;;;;;;12.57;4.43;;;;;;;26.23;45.65;100868.09;5019391;28;20059;-77
2023/09/27 07:17:41;;;;;;;11.23;4.55;;;;;;;29.41;37.64;100864.78;5003004;28;20064;-79
2023/09/27 07:20:14;;;;;;;15.30;4.80;;;;;;;32.33;30.28;100871.91;5036964;28;20044;-78
2023/09/27 07:22:41;;;;;;;9.32;3.97;;;;;;;34.73;25.45;100874.53;5019201;28;20132;-78
2023/09/27 07:25:12;;;;;;;10.48;3.80;;;;;;;36.83;22.28;100877.72;5052341;28;20037;-78
2023/09/27 07:27:42;;;;;;;9.63;3.47;;;;;;;38.80;19.28;100878.25;5054309;28;20047;-78
2023/09/27 07:30:12;;;;;;;18.85;5.50;;;;;;;40.48;17.17;100880.59;5006109;28;20041;-78
2023/09/27 07:32:39;;;;;;;9.68;3.40;;;;;;;41.60;15.29;100865.38;5038260;28;20045;-79
2023/09/27 07:35:10;;;;;;;14.30;3.47;;;;;;;41.91;14.75;100865.09;5054611;28;20509;-78
2023/09/27 07:37:37;;;;;;;14.65;3.88;;;;;;;42.09;14.15;100855.47;5037173;28;20048;-78
2023/09/27 07:40:08;;;;;;;11.38;3.00;;;;;;;42.45;13.80;100861.31;5037668;28;20049;-79
2023/09/27 07:42:58;;;;;;;16.50;3.88;;;;;;;43.26;13.06;100865.19;5053275;28;20041;-79
2023/09/27 07:45:30;;;;;;;6.07;2.80;;;;;;;44.02;11.88;100863.44;5054165;28;20052;-80
2023/09/27 07:47:56;;;;;;;5.53;2.63;;;;;;;44.64;11.72;100863.00;5038481;28;20044;-80
2023/09/27 07:50:27;;;;;;;5.93;2.60;;;;;;;45.17;10.74;100862.53;5037522;28;20041;-80
2023/09/27 07:53:00;;;;;;;7.25;3.00;;;;;;;44.82;11.09;100857.88;5054321;28;20052;-78
2023/09/27 07:55:27;;;;;;;5.32;2.60;;;;;;;45.22;10.62;100856.66;5055237;28;20048;-79
2023/09/27 07:57:54;;;;;;;11.55;3.60;;;;;;;44.84;10.16;100852.75;5004528;28;20093;-78
2023/09/27 08:00:25;;;;;;;9.95;3.05;;;;;;;44.45;10.84;100855.22;5037557;28;20059;-79
2023/09/27 08:02:51;;;;;;;7.70;3.00;;;;;;;44.86;10.81;100853.22;5005506;28;20041;-78
2023/09/27 08:05:19;;;;;;;5.28;2.50;;;;;;;45.46;10.09;100847.25;5004375;28;20477;-79
2023/09/27 08:07:46;;;;;;;7.57;2.70;;;;;;;45.28;9.85;100848.78;5021224;28;20049;-80
2023/09/27 08:10:12;;;;;;;4.90;2.42;;;;;;;44.88;10.23;100853.66;5070439;28;20473;-80
2023/09/27 08:12:42;;;;;;;6.60;2.53;;;;;;;45.28;9.79;100848.78;5053882;28;20060;-80
2023/09/27 08:15:09;;;;;;;5.30;2.42;;;;;;;44.68;10.18;100847.91;5004887;28;20059;-79
2023/09/27 08:17:35;;;;;;;5.95;2.40;;;;;;;43.47;10.76;100837.94;5020679;28;20049;-79
2023/09/27 08:20:07;;;;;;;3.90;2.60;;;;;;;44.37;10.43;100844.13;5020871;28;20056;-80
2023/09/27 08:22:34;;;;;;;8.75;2.90;;;;;;;45.21;9.94;100834.56;5036864;28;20045;-78
2023/09/27 08:25:01;;;;;;;4.35;2.55;;;;;;;45.62;9.30;100825.63;5021266;28;20067;-79
2023/09/27 08:27:29;;;;;;;6.60;2.47;;;;;;;46.08;9.17;100833.19;5021379;28;20132;-79
2023/09/27 08:29:55;;;;;;;4.22;2.30;;;;;;;46.84;8.45;100833.22;5053788;28;20051;-79
2023/09/27 08:32:20;;;;;;;4.97;2.20;;;;;;;47.22;8.23;100824.78;5020300;28;20094;-79
2023/09/27 08:34:46;;;;;;;7.80;2.90;;;;;;;47.32;8.48;100826.13;5036783;28;20052;-79
2023/09/27 08:37:12;;;;;;;6.75;2.38;;;;;;;46.59;8.94;100806.63;5036393;28;20048;-79
2023/09/27 08:39:39;;;;;;;5.80;2.30;;;;;;;47.03;8.71;100813.53;5019991;28;20044;-79
2023/09/27 08:42:05;;;;;;;5.43;2.53;;;;;;;47.78;8.39;100812.84;5019550;28;20144;-80
2023/09/27 08:44:32;;;;;;;10.57;2.40;;;;;;;-141.23;100.00;62281.09;5036762;28;20044;-80
2023/09/27 08:46:58;;;;;;;8.00;2.50;;;;;;;-141.23;100.00;62281.09;5036779;28;20467;-80
2023/09/27 08:49:25;;;;;;;4.22;2.00;;;;;;;-141.23;100.00;62281.09;5052893;28;20045;-79
2023/09/27 08:51:52;;;;;;;5.15;2.03;;;;;;;-141.23;100.00;62281.09;5052951;28;20037;-80
2023/09/27 08:54:20;;;;;;;4.60;2.10;;;;;;;-141.23;100.00;62281.09;5036306;28;20040;-80
2023/09/27 08:56:49;;;;;;;5.97;2.35;;;;;;;-141.23;100.00;62281.09;5019747;28;20479;-80
2023/09/27 08:59:15;;;;;;;4.78;2.05;;;;;;;-141.23;100.00;62281.09;5036454;28;20525;-80
2023/09/27 09:01:43;;;;;;;7.50;2.20;;;;;;;-141.23;100.00;62281.09;5036450;28;20044;-80
2023/09/27 09:04:10;;;;;;;8.20;1.97;;;;;;;-141.23;100.00;62281.09;5052781;28;20340;-80
2023/09/27 09:06:36;;;;;;;7.78;2.47;;;;;;;-141.23;100.00;62281.09;5019810;28;20136;-80
2023/09/27 09:09:11;;;;;;;4.05;1.95;;;;;;;-141.23;100.00;62281.09;5020077;28;20028;-80
2023/09/27 09:11:49;;;;;;;5.93;2.47;;;;;;;-141.23;100.00;62281.09;5037433;28;20044;-80
2023/09/27 09:14:22;;;;;;;5.88;2.15;;;;;;;-141.23;100.00;62281.09;5052382;28;20102;-80
2023/09/27 09:16:53;;;;;;;8.90;2.90;;;;;;;-141.23;100.00;62281.09;5020889;28;20366;-80
2023/09/27 09:19:24;;;;;;;10.40;2.40;;;;;;;-141.23;100.00;62281.09;5036376;28;20044;-81
2023/09/27 09:22:03;;;;;;;3.75;2.30;;;;;;;-141.23;100.00;62281.09;5020352;28;20135;-80
2023/09/27 09:24:29;;;;;;;4.15;1.95;;;;;;;-141.23;100.00;62281.09;5020109;28;20045;-80
2023/09/27 09:27:14;;;;;;;4.97;2.00;;;;;;;-141.23;100.00;62281.09;5036416;28;20084;-80
2023/09/27 09:29:45;;;;;;;5.53;2.20;;;;;;;-141.23;100.00;62281.09;5036363;28;20044;-81
2023/09/27 09:32:13;;;;;;;4.43;2.25;;;;;;;-141.23;100.00;62281.09;5020488;28;20053;-81
2023/09/27 09:34:43;;;;;;;11.55;2.25;;;;;;;-141.23;100.00;62281.09;5037437;28;20051;-79
2023/09/27 09:37:29;;;;;;;8.70;2.30;;;;;;;-141.23;100.00;62281.09;5055106;28;20041;-80
2023/09/27 09:40:14;;;;;;;7.63;1.90;;;;;;;-141.23;100.00;62281.09;5036041;28;20047;-81
2023/09/27 09:42:42;;;;;;;5.90;2.05;;;;;;;-141.23;100.00;62281.09;5004051;28;20037;-81
2023/09/27 09:45:12;;;;;;;6.60;1.90;;;;;;;-141.23;100.00;62281.09;5021444;28;20041;-79
2023/09/27 09:47:39;;;;;;;5.05;2.10;;;;;;;-141.23;100.00;62281.09;5025784;28;20075;-79
2023/09/27 09:50:16;;;;;;;4.53;1.83;;;;;;;-141.23;100.00;62281.09;5038657;28;20101;-80
2023/09/27 09:53:05;;;;;;;4.60;1.60;;;;;;;-141.23;100.00;62281.09;5036567;28;20144;-80
2023/09/27 09:55:30;;;;;;;6.28;2.05;;;;;;;-141.23;100.00;62281.09;5018938;28;20052;-81
2023/09/27 09:58:06;;;;;;;6.05;1.83;;;;;;;-141.23;100.00;62281.09;5035640;28;20060;-81
2023/09/27 10:00:35;;;;;;;4.15;1.85;;;;;;;-141.23;100.00;62281.09;5002921;28;20493;-81
2023/09/27 10:03:03;;;;;;;4.93;2.05;;;;;;;-141.23;100.00;62281.09;5019011;28;20524;-81
2023/09/27 10:05:51;;;;;;;6.82;1.73;;;;;;;-141.23;100.00;62281.09;5035419;28;20047;-80
2023/09/27 10:08:20;;;;;;;5.60;1.70;;;;;;;-141.23;100.00;62281.09;5018765;28;20045;-81
2023/09/27 10:10:47;;;;;;;3.15;1.77;;;;;;;-141.23;100.00;62281.09;5034958;28;20037;-81
2023/09/27 10:13:13;;;;;;;3.17;1.85;;;;;;;-141.23;100.00;62281.09;5019232;28;20114;-81
2023/09/27 10:15:40;;;;;;;4.90;2.13;;;;;;;-141.23;100.00;62281.09;5034902;28;20133;-79
2023/09/27 10:18:22;;;;;;;4.80;1.98;;;;;;;-141.23;100.00;62281.09;5018658;28;20045;-81
2023/09/27 10:21:00;;;;;;;11.00;2.95;;;;;;;-141.23;100.00;62281.09;5051384;28;20076;-80
2023/09/27 10:23:26;;;;;;;3.77;2.50;;;;;;;-141.23;100.00;62281.09;5018032;28;20509;-80
2023/09/27 10:25:52;;;;;;;5.85;2.78;;;;;;;-141.23;100.00;62281.09;5034529;28;20342;-80
2023/09/27 10:28:18;;;;;;;8.25;2.25;;;;;;;-141.23;100.00;62281.09;5018428;28;20037;-81
2023/09/27 10:30:45;;;;;;;6.55;2.70;;;;;;;-141.23;100.00;62281.09;5034890;28;20044;-80
2023/09/27 10:33:17;;;;;;;7.43;2.50;;;;;;;-141.23;100.00;62281.09;5018574;28;20049;-80
2023/09/27 10:35:45;;;;;;;3.63;1.80;;;;;;;-141.23;100.00;62281.09;5053018;28;20056;-81
2023/09/27 10:38:11;;;;;;;7.60;1.80;;;;;;;-141.23;100.00;62281.09;5018339;28;20186;-82
2023/09/27 10:40:44;;;;;;;4.88;2.08;;;;;;;-141.23;100.00;62281.09;5002206;28;20044;-81
2023/09/27 10:43:11;;;;;;;10.45;2.22;;;;;;;-141.23;100.00;62281.09;5051714;28;20059;-80
2023/09/27 10:45:36;;;;;;;7.57;2.00;;;;;;;-141.23;100.00;62281.09;5035048;28;20049;-81
2023/09/27 10:48:18;;;;;;;4.88;1.80;;;;;;;-141.23;100.00;62281.09;5018095;28;20541;-81
2023/09/27 10:51:02;;;;;;;2.33;1.98;;;;;;;-141.23;100.00;62281.09;5034582;28;20510;-80
2023/09/27 10:53:28;;;;;;;4.05;1.92;;;;;;;-141.23;100.00;62281.09;5034403;28;20105;-80
2023/09/27 10:55:54;;;;;;;4.95;1.90;;;;;;;-141.23;100.00;62281.09;5034767;28;20206;-80
2023/09/27 10:58:21;;;;;;;4.70;2.13;;;;;;;-141.23;100.00;62281.09;5018002;28;20045;-81
2023/09/27 11:01:04;;;;;;;5.97;2.15;;;;;;;-141.23;100.00;62281.09;5018270;28;20051;-81
2023/09/27 11:03:30;;;;;;;10.88;3.40;;;;;;;-141.23;100.00;62281.09;5019213;28;20374;-81
2023/09/27 11:06:09;;;;;;;5.90;2.17;;;;;;;-141.23;100.00;62281.09;5038562;28;20103;-80
2023/09/27 11:08:35;;;;;;;7.60;2.38;;;;;;;-141.23;100.00;62281.09;5055151;28;20117;-81
2023/09/27 11:11:01;;;;;;;6.32;2.45;;;;;;;-141.23;100.00;62281.09;5038291;28;20467;-81
2023/09/27 11:13:29;;;;;;;6.45;2.20;;;;;;;-141.23;100.00;62281.09;5038753;28;20087;-81
2023/09/27 11:16:09;;;;;;;7.55;2.20;;;;;;;-141.23;100.00;62281.09;5038836;28;20068;-81
2023/09/27 11:18:36;;;;;;;5.25;2.78;;;;;;;-141.23;100.00;62281.09;5006473;28;20487;-80
2023/09/27 11:21:08;;;;;;;4.35;2.42;;;;;;;-141.23;100.00;62281.09;5038808;28;20041;-80
2023/09/27 11:23:57;;;;;;;6.55;2.22;;;;;;;-141.23;100.00;62281.09;5055072;28;20041;-81